Time;durP1;ratioP1;P1;durP2;ratioP2;P2;SDS_P1;SDS_P2;PMS_P1;PMS_P2;Temp;Humidity;BMP_temperature;BMP_pressure;BME280_temperature;BME280_humidity;BME280_pressure;Samples;Min_cycle;Max_cycle;Signal;HPM_P1;HPM_P2
2023/12/28 00:04:52;;;;;;;6.30;5.33;;;6.80;38.20;;;;;;10451514;28;20229;-74
2023/12/28 00:09:57;;;;;;;5.50;4.87;;;6.70;38.10;;;;;;10451159;28;20282;-74
2023/12/28 00:15:01;;;;;;;5.03;4.53;;;6.80;38.20;;;;;;10450680;28;20279;-74
2023/12/28 00:20:06;;;;;;;6.80;5.37;;;6.80;38.10;;;;;;10450377;28;20861;-74
2023/12/28 00:25:09;;;;;;;6.43;5.47;;;6.80;37.50;;;;;;10450432;28;20224;-74
2023/12/28 00:30:16;;;;;;;5.30;4.80;;;6.80;37.60;;;;;;10449804;28;20311;-74
2023/12/28 00:35:21;;;;;;;5.77;5.17;;;6.80;37.70;;;;;;10450074;28;20241;-74
2023/12/28 00:40:24;;;;;;;5.03;4.50;;;6.70;37.60;;;;;;10448936;28;20777;-74
2023/12/28 00:45:29;;;;;;;5.60;5.00;;;6.70;37.60;;;;;;10449388;28;20244;-74
2023/12/28 00:50:33;;;;;;;5.13;4.63;;;6.70;37.60;;;;;;10449076;28;20236;-74
2023/12/28 00:55:36;;;;;;;4.90;4.40;;;6.70;37.40;;;;;;10448642;28;20336;-74
2023/12/28 01:00:41;;;;;;;4.90;4.30;;;6.50;37.50;;;;;;10448435;28;20229;-74
2023/12/28 01:05:47;;;;;;;5.03;4.40;;;6.50;37.90;;;;;;10447955;28;20225;-74
2023/12/28 01:10:50;;;;;;;4.93;4.47;;;6.50;37.90;;;;;;10448146;28;20233;-74
2023/12/28 01:15:55;;;;;;;4.70;4.30;;;6.60;37.70;;;;;;10447486;28;20651;-74
2023/12/28 01:20:58;;;;;;;4.80;4.40;;;6.60;37.60;;;;;;10447445;28;20241;-74
2023/12/28 01:26:02;;;;;;;4.90;4.20;;;6.50;37.40;;;;;;10447491;28;20228;-74
2023/12/28 01:31:07;;;;;;;5.23;4.73;;;6.50;37.40;;;;;;10446880;28;20229;-74
2023/12/28 01:36:18;;;;;;;4.60;4.10;;;6.50;37.50;;;;;;10446659;28;20290;-74
2023/12/28 01:41:22;;;;;;;5.97;4.60;;;6.30;37.90;;;;;;10446787;28;20248;-74
2023/12/28 01:46:26;;;;;;;4.87;4.37;;;6.20;37.70;;;;;;10446897;28;20315;-73
2023/12/28 01:51:30;;;;;;;4.33;3.93;;;6.10;37.70;;;;;;10446634;28;20343;-74
2023/12/28 01:56:33;;;;;;;5.10;4.60;;;6.00;37.60;;;;;;10446056;28;20232;-73
2023/12/28 02:01:38;;;;;;;5.80;4.20;;;5.90;37.50;;;;;;10446356;28;20229;-74
2023/12/28 02:06:42;;;;;;;6.03;4.87;;;5.90;37.50;;;;;;10418257;28;20617;-74
2023/12/28 02:11:45;;;;;;;4.83;4.40;;;5.80;37.50;;;;;;10446010;28;20244;-73
2023/12/28 02:17:04;;;;;;;4.17;3.77;;;5.80;37.50;;;;;;10418195;28;20231;-74
2023/12/28 02:22:09;;;;;;;4.63;4.10;;;5.70;37.70;;;;;;10445840;28;20221;-74
2023/12/28 02:27:14;;;;;;;4.43;4.03;;;5.80;37.50;;;;;;10445742;28;20233;-73
2023/12/28 02:32:22;;;;;;;5.20;4.70;;;5.80;37.50;;;;;;10445418;28;20237;-73
2023/12/28 02:37:27;;;;;;;5.10;4.60;;;5.90;37.50;;;;;;10445547;28;20256;-73
2023/12/28 02:42:31;;;;;;;4.93;4.30;;;5.80;37.50;;;;;;10445437;28;20237;-73
2023/12/28 02:47:35;;;;;;;7.10;4.23;;;5.70;37.40;;;;;;10445191;28;20233;-73
2023/12/28 02:52:38;;;;;;;5.30;4.27;;;5.60;37.50;;;;;;10444896;28;20229;-73
2023/12/28 02:57:44;;;;;;;4.80;4.30;;;5.70;37.50;;;;;;10444874;28;20723;-73
2023/12/28 03:02:47;;;;;;;4.50;4.10;;;5.70;37.40;;;;;;10449662;28;20989;-73
2023/12/28 03:07:51;;;;;;;4.70;3.97;;;5.60;37.30;;;;;;10452543;28;20323;-73
2023/12/28 03:12:55;;;;;;;4.60;4.20;;;5.50;37.50;;;;;;10452107;28;20256;-73
2023/12/28 03:17:58;;;;;;;4.30;3.90;;;5.50;37.80;;;;;;10452139;28;20236;-73
2023/12/28 03:23:02;;;;;;;4.70;4.20;;;5.50;37.50;;;;;;10452020;28;20233;-73
2023/12/28 03:28:07;;;;;;;4.93;4.23;;;5.50;37.70;;;;;;10451333;28;20252;-73
2023/12/28 03:33:10;;;;;;;6.00;4.33;;;5.50;37.40;;;;;;10451697;28;20229;-73
2023/12/28 03:38:13;;;;;;;4.53;3.73;;;5.50;37.40;;;;;;10451149;28;20236;-73
2023/12/28 03:43:18;;;;;;;4.57;4.07;;;5.40;37.40;;;;;;10451071;28;20324;-73
2023/12/28 03:48:21;;;;;;;4.43;4.03;;;5.40;37.70;;;;;;10450521;28;20248;-73
2023/12/28 03:53:25;;;;;;;4.03;3.63;;;5.40;37.50;;;;;;10450331;28;20240;-73
2023/12/28 03:58:30;;;;;;;4.47;4.07;;;5.40;37.50;;;;;;10450652;28;20232;-73
2023/12/28 04:03:33;;;;;;;4.20;3.80;;;5.30;37.70;;;;;;10450267;28;20237;-73
2023/12/28 04:08:36;;;;;;;5.23;4.30;;;5.30;37.70;;;;;;10450440;28;20403;-73
2023/12/28 04:13:41;;;;;;;4.27;3.87;;;5.30;37.70;;;;;;10448997;28;20232;-73
2023/12/28 04:18:44;;;;;;;3.83;3.33;;;5.40;37.70;;;;;;10449811;28;20252;-73
2023/12/28 04:23:48;;;;;;;4.80;3.73;;;5.40;37.10;;;;;;10449946;28;20232;-73
2023/12/28 04:28:52;;;;;;;4.03;3.47;;;5.30;37.00;;;;;;10449421;28;20812;-73
2023/12/28 04:33:55;;;;;;;4.23;3.83;;;5.30;37.20;;;;;;10448875;28;20287;-72
2023/12/28 04:38:59;;;;;;;4.03;3.30;;;5.30;37.00;;;;;;10449332;28;20844;-73
2023/12/28 04:44:04;;;;;;;4.10;3.53;;;5.20;37.40;;;;;;10448267;28;20220;-73
2023/12/28 04:49:07;;;;;;;3.90;3.60;;;5.10;37.50;;;;;;10448770;28;20498;-73
2023/12/28 04:54:10;;;;;;;4.43;4.03;;;5.10;37.40;;;;;;10448331;28;20708;-73
2023/12/28 04:59:15;;;;;;;4.17;3.77;;;5.10;37.10;;;;;;10448078;28;20344;-73
2023/12/28 05:04:18;;;;;;;3.60;3.30;;;5.10;37.40;;;;;;10448222;28;20320;-73
2023/12/28 05:09:22;;;;;;;4.63;3.73;;;5.00;37.30;;;;;;10447889;28;20237;-73
2023/12/28 05:14:26;;;;;;;4.53;3.70;;;4.90;37.40;;;;;;10447518;28;20751;-72
2023/12/28 05:19:29;;;;;;;4.10;3.53;;;4.90;37.70;;;;;;10447474;28;20241;-73
2023/12/28 05:24:33;;;;;;;4.10;3.70;;;5.00;37.60;;;;;;10446999;28;20244;-72
2023/12/28 05:29:37;;;;;;;4.73;3.97;;;5.00;37.30;;;;;;10447064;28;20237;-72
2023/12/28 05:34:40;;;;;;;3.87;3.57;;;4.90;37.30;;;;;;10446945;28;20256;-72
2023/12/28 05:39:44;;;;;;;4.30;3.73;;;4.90;37.50;;;;;;10446541;28;20237;-72
2023/12/28 05:44:48;;;;;;;4.90;4.13;;;4.90;37.40;;;;;;10446930;28;20757;-72
2023/12/28 05:49:52;;;;;;;5.20;4.27;;;4.90;37.40;;;;;;10446664;28;20767;-73
2023/12/28 05:54:56;;;;;;;4.87;4.27;;;4.90;37.40;;;;;;10446402;28;20665;-72
2023/12/28 06:00:01;;;;;;;5.53;4.40;;;4.90;37.40;;;;;;10446524;28;20263;-72
2023/12/28 06:05:05;;;;;;;3.87;3.47;;;4.90;37.50;;;;;;10446099;28;20256;-73
2023/12/28 06:10:09;;;;;;;4.23;3.83;;;5.00;37.40;;;;;;10446178;28;20237;-73
2023/12/28 06:15:14;;;;;;;4.30;3.90;;;5.00;37.40;;;;;;10446512;28;20262;-74
2023/12/28 06:20:19;;;;;;;4.30;3.70;;;4.90;37.20;;;;;;10446337;28;20248;-74
2023/12/28 06:25:22;;;;;;;4.23;3.83;;;4.90;37.00;;;;;;10446209;28;20765;-73
2023/12/28 06:30:27;;;;;;;6.00;5.50;;;4.80;37.10;;;;;;10445885;28;20243;-73
2023/12/28 06:35:30;;;;;;;6.73;5.87;;;4.70;37.20;;;;;;10446955;28;20606;-74
2023/12/28 06:40:33;;;;;;;8.87;7.13;;;4.70;37.40;;;;;;10454191;28;20236;-74
2023/12/28 06:45:38;;;;;;;9.20;8.20;;;4.60;37.40;;;;;;10453973;28;20240;-73
2023/12/28 06:50:42;;;;;;;9.40;8.33;;;4.60;37.50;;;;;;10453491;28;20235;-74
2023/12/28 06:55:45;;;;;;;9.17;8.23;;;4.60;37.50;;;;;;10453476;28;20311;-74
2023/12/28 07:00:51;;;;;;;7.57;6.77;;;4.60;37.50;;;;;;10453198;28;20233;-74
2023/12/28 07:05:54;;;;;;;8.40;7.57;;;4.60;37.80;;;;;;10453119;28;20762;-74
2023/12/28 07:10:58;;;;;;;6.93;5.70;;;4.60;37.70;;;;;;10452773;28;20302;-73
2023/12/28 07:16:02;;;;;;;4.67;4.27;;;4.60;37.80;;;;;;10452764;28;20260;-74
2023/12/28 07:21:09;;;;;;;4.60;4.10;;;4.50;38.00;;;;;;10452193;28;20235;-74
2023/12/28 07:26:12;;;;;;;5.77;4.27;;;4.50;38.20;;;;;;10452018;28;20241;-73
2023/12/28 07:31:25;;;;;;;6.63;5.57;;;4.50;38.40;;;;;;10452047;28;20758;-73
2023/12/28 07:36:28;;;;;;;4.30;3.83;;;4.50;39.10;;;;;;10451632;28;20237;-74
2023/12/28 07:41:31;;;;;;;5.00;3.70;;;4.60;38.50;;;;;;10451847;28;20714;-74
2023/12/28 07:46:36;;;;;;;4.83;3.80;;;4.70;38.40;;;;;;10451654;28;20312;-74
2023/12/28 07:51:39;;;;;;;3.57;3.23;;;4.70;38.70;;;;;;10451492;28;20324;-74
2023/12/28 07:56:42;;;;;;;3.63;3.00;;;4.80;38.80;;;;;;10451263;28;20738;-74
2023/12/28 08:01:47;;;;;;;3.63;2.87;;;4.90;39.10;;;;;;10451207;28;20233;-74
2023/12/28 08:06:50;;;;;;;3.87;3.20;;;5.00;39.50;;;;;;10450201;28;20229;-74
2023/12/28 08:11:53;;;;;;;3.47;3.17;;;5.20;39.60;;;;;;10449663;28;20304;-73
2023/12/28 08:16:58;;;;;;;3.10;2.90;;;5.50;39.90;;;;;;10449112;28;20604;-74
2023/12/28 08:22:02;;;;;;;3.17;2.93;;;5.70;40.20;;;;;;10449359;28;20229;-74
2023/12/28 08:27:05;;;;;;;3.67;3.17;;;6.00;40.20;;;;;;10449102;28;20233;-74
2023/12/28 08:32:11;;;;;;;3.63;3.33;;;6.40;40.10;;;;;;10448874;28;20317;-74
2023/12/28 08:37:14;;;;;;;3.83;3.37;;;6.70;40.00;;;;;;10419796;28;20332;-74
2023/12/28 08:42:18;;;;;;;4.07;3.77;;;7.00;39.70;;;;;;10429733;28;20260;-74
2023/12/28 08:47:23;;;;;;;4.47;4.10;;;7.20;39.30;;;;;;10448924;28;20630;-74
2023/12/28 08:52:26;;;;;;;4.77;4.37;;;7.30;38.70;;;;;;10449004;28;20229;-74
2023/12/28 08:57:29;;;;;;;4.70;4.27;;;7.40;38.80;;;;;;10448531;28;20299;-74
2023/12/28 09:02:45;;;;;;;4.70;4.30;;;7.50;38.80;;;;;;10448747;28;20228;-74
2023/12/28 09:07:48;;;;;;;4.40;4.00;;;7.60;38.90;;;;;;10448252;28;20283;-74
2023/12/28 09:12:52;;;;;;;5.10;4.57;;;7.60;38.90;;;;;;10448702;28;20228;-74
2023/12/28 09:17:58;;;;;;;4.30;3.77;;;7.70;38.50;;;;;;10447889;28;20302;-74
2023/12/28 09:23:01;;;;;;;4.90;4.40;;;7.70;38.50;;;;;;10447730;28;20252;-74
2023/12/28 09:28:05;;;;;;;4.00;3.70;;;7.80;38.80;;;;;;10447769;28;20315;-74
2023/12/28 09:33:10;;;;;;;4.80;4.30;;;8.00;38.90;;;;;;10447687;28;20282;-74
2023/12/28 09:38:13;;;;;;;4.17;3.77;;;8.10;38.90;;;;;;10447440;28;20260;-74
2023/12/28 09:43:23;;;;;;;4.77;3.83;;;8.30;39.00;;;;;;10447599;28;20259;-73
2023/12/28 09:48:29;;;;;;;4.37;3.97;;;8.40;39.20;;;;;;10446904;28;20279;-73
2023/12/28 09:53:33;;;;;;;4.97;4.57;;;8.50;39.30;;;;;;10447435;28;20225;-74
2023/12/28 09:58:37;;;;;;;6.23;5.63;;;8.60;38.90;;;;;;10446745;28;20237;-74
2023/12/28 10:03:42;;;;;;;6.20;5.60;;;8.70;38.90;;;;;;10446653;28;20232;-74
2023/12/28 10:08:49;;;;;;;5.37;4.87;;;8.80;39.00;;;;;;10446868;28;20239;-74
2023/12/28 10:13:52;;;;;;;5.43;4.93;;;8.80;39.00;;;;;;10453635;28;20702;-74
2023/12/28 10:18:58;;;;;;;5.30;4.80;;;8.90;38.80;;;;;;10455018;28;20232;-74
2023/12/28 10:24:03;;;;;;;5.27;4.73;;;8.90;38.80;;;;;;10454711;28;20278;-74
2023/12/28 10:29:06;;;;;;;5.00;4.50;;;9.00;38.80;;;;;;10454521;28;20312;-74
2023/12/28 10:34:11;;;;;;;6.70;4.60;;;9.00;38.80;;;;;;10454766;28;20604;-74
2023/12/28 10:39:20;;;;;;;4.10;3.80;;;9.10;38.90;;;;;;10454208;28;20799;-74
2023/12/28 10:44:28;;;;;;;4.47;4.07;;;9.10;38.80;;;;;;10454441;28;20225;-74
2023/12/28 10:49:35;;;;;;;4.60;3.90;;;9.10;38.40;;;;;;10454108;28;20744;-74
2023/12/28 10:54:45;;;;;;;4.13;3.67;;;9.20;38.40;;;;;;10453982;28;20260;-74
2023/12/28 10:59:59;;;;;;;4.10;3.80;;;9.20;38.20;;;;;;10453892;28;20972;-74
2023/12/28 11:05:06;;;;;;;4.50;3.83;;;9.30;38.40;;;;;;10453138;28;20244;-74
2023/12/28 11:10:10;;;;;;;3.97;3.63;;;9.30;38.20;;;;;;10453381;28;20308;-74
2023/12/28 11:15:15;;;;;;;4.27;3.50;;;9.30;38.20;;;;;;10453191;28;20264;-74
2023/12/28 11:20:20;;;;;;;5.10;3.80;;;9.40;38.10;;;;;;10452739;28;20316;-74
2023/12/28 11:25:23;;;;;;;4.03;3.63;;;9.40;38.20;;;;;;10452124;28;20316;-74
2023/12/28 11:30:27;;;;;;;3.97;3.67;;;9.50;38.40;;;;;;10452556;28;20260;-74
2023/12/28 11:35:37;;;;;;;3.43;3.00;;;9.50;38.60;;;;;;10452103;28;20810;-74
2023/12/28 11:40:46;;;;;;;4.10;3.70;;;9.60;38.50;;;;;;10452068;28;20233;-74
2023/12/28 11:45:51;;;;;;;3.67;3.37;;;9.60;39.40;;;;;;10452022;28;20603;-74
2023/12/28 11:50:58;;;;;;;20.40;18.23;;;9.70;38.50;;;;;;10451383;28;20232;-74
2023/12/28 11:56:03;;;;;;;6.10;5.47;;;9.70;38.00;;;;;;10451354;28;20332;-74
2023/12/28 12:01:06;;;;;;;5.97;3.97;;;9.70;38.10;;;;;;10450980;28;20774;-74
2023/12/28 12:06:11;;;;;;;4.40;4.00;;;9.80;38.20;;;;;;10451125;28;20225;-74
2023/12/28 12:11:14;;;;;;;4.33;3.93;;;9.80;38.10;;;;;;10450850;28;20263;-74
2023/12/28 12:16:18;;;;;;;4.50;4.10;;;9.90;38.00;;;;;;10450519;28;20256;-74
2023/12/28 12:21:24;;;;;;;3.73;3.43;;;9.90;38.10;;;;;;10450466;28;20245;-74
2023/12/28 12:26:29;;;;;;;4.20;3.80;;;10.00;37.30;;;;;;10450164;28;20319;-74
2023/12/28 12:31:32;;;;;;;4.10;3.63;;;10.00;37.30;;;;;;10449692;28;20309;-74
2023/12/28 12:36:37;;;;;;;4.20;3.80;;;10.10;37.50;;;;;;10448641;28;20243;-74
2023/12/28 12:41:41;;;;;;;3.97;3.67;;;10.10;37.40;;;;;;10449394;28;20317;-74
2023/12/28 12:46:44;;;;;;;4.50;4.10;;;10.20;37.40;;;;;;10449272;28;20320;-74
2023/12/28 12:51:50;;;;;;;4.50;3.70;;;10.20;37.40;;;;;;10449182;28;20221;-74
2023/12/28 12:56:57;;;;;;;4.47;4.07;;;10.20;37.50;;;;;;10448704;28;20232;-74
2023/12/28 13:02:01;;;;;;;3.90;3.60;;;10.30;37.50;;;;;;10448629;28;20236;-74
2023/12/28 13:07:06;;;;;;;4.50;4.10;;;10.30;37.50;;;;;;10448131;28;20237;-74
2023/12/28 13:12:10;;;;;;;5.30;4.80;;;10.30;37.50;;;;;;10448276;28;20237;-74
2023/12/28 13:17:13;;;;;;;6.73;5.83;;;10.40;37.60;;;;;;10448021;28;20319;-74
2023/12/28 13:22:17;;;;;;;5.50;5.00;;;10.40;37.50;;;;;;10447876;28;20253;-74
2023/12/28 13:27:21;;;;;;;5.30;4.77;;;10.40;37.70;;;;;;10447341;28;20259;-73
2023/12/28 13:32:24;;;;;;;5.00;4.60;;;10.50;37.70;;;;;;10447784;28;20311;-74
2023/12/28 13:37:29;;;;;;;4.83;4.43;;;10.50;38.40;;;;;;10447039;28;20240;-74
2023/12/28 13:42:32;;;;;;;4.97;4.13;;;10.50;37.60;;;;;;10447016;28;20312;-74
2023/12/28 13:47:35;;;;;;;4.43;4.10;;;10.60;37.50;;;;;;10445350;28;20614;-74
2023/12/28 13:52:40;;;;;;;4.20;3.80;;;10.60;37.50;;;;;;10445715;28;20274;-74
2023/12/28 13:57:43;;;;;;;3.97;3.53;;;10.60;37.60;;;;;;10445031;28;20256;-74
2023/12/28 14:02:46;;;;;;;4.43;4.03;;;10.70;37.80;;;;;;10446549;28;20235;-74
2023/12/28 14:07:51;;;;;;;5.83;3.73;;;10.70;37.70;;;;;;10446867;28;20251;-74
2023/12/28 14:12:54;;;;;;;3.87;3.40;;;10.70;37.90;;;;;;10446559;28;20705;-74
2023/12/28 14:17:58;;;;;;;3.83;3.50;;;10.70;37.80;;;;;;10446248;28;20291;-74
2023/12/28 14:23:03;;;;;;;3.80;3.50;;;10.80;37.80;;;;;;10446169;28;20948;-74
2023/12/28 14:28:12;;;;;;;3.50;3.20;;;10.70;37.70;;;;;;10445741;28;20241;-74
2023/12/28 14:33:15;;;;;;;3.97;3.60;;;10.80;37.60;;;;;;10446100;28;20660;-74
2023/12/28 14:38:20;;;;;;;4.23;3.83;;;10.80;37.60;;;;;;10445993;28;20232;-74
2023/12/28 14:43:23;;;;;;;4.00;3.67;;;10.80;37.60;;;;;;10445939;28;20229;-74
2023/12/28 14:48:26;;;;;;;3.70;3.40;;;10.80;37.50;;;;;;10446009;28;20232;-74
2023/12/28 14:53:31;;;;;;;3.83;3.47;;;10.80;37.60;;;;;;10445830;28;20229;-74
2023/12/28 14:58:34;;;;;;;3.70;3.23;;;10.80;37.60;;;;;;10449794;28;20240;-74
2023/12/28 15:03:39;;;;;;;4.27;3.73;;;10.80;37.60;;;;;;10453283;28;20233;-75
2023/12/28 15:08:44;;;;;;;4.97;4.40;;;10.80;37.70;;;;;;10452867;28;20233;-74
2023/12/28 15:13:48;;;;;;;10.57;9.37;;;10.90;37.70;;;;;;10452978;28;20299;-74
2023/12/28 15:18:51;;;;;;;13.53;10.50;;;10.80;37.60;;;;;;10452687;28;20231;-74
2023/12/28 15:23:56;;;;;;;13.03;10.00;;;10.80;37.70;;;;;;10452565;28;20225;-74
2023/12/28 15:29:00;;;;;;;13.37;9.20;;;10.80;37.70;;;;;;10452202;28;20233;-74
2023/12/28 15:34:04;;;;;;;10.20;8.57;;;10.80;37.80;;;;;;10451867;28;20232;-74
2023/12/28 15:39:08;;;;;;;10.93;9.13;;;10.80;37.80;;;;;;10451830;28;20229;-74
2023/12/28 15:44:12;;;;;;;8.83;7.93;;;10.80;37.90;;;;;;10451820;28;20328;-74
2023/12/28 15:49:16;;;;;;;9.97;8.57;;;10.80;37.80;;;;;;10451392;28;20294;-74
2023/12/28 15:54:20;;;;;;;9.77;8.30;;;10.80;37.70;;;;;;10451223;28;20252;-74
2023/12/28 15:59:23;;;;;;;8.37;7.57;;;10.70;37.80;;;;;;10450875;28;20242;-74
2023/12/28 16:04:27;;;;;;;11.33;9.37;;;10.70;37.80;;;;;;10451165;28;20279;-74
2023/12/28 16:09:32;;;;;;;12.47;11.17;;;10.70;38.00;;;;;;10450431;28;20233;-73
2023/12/28 16:14:36;;;;;;;10.87;9.77;;;10.70;38.10;;;;;;10450447;28;20252;-74
2023/12/28 16:19:40;;;;;;;10.90;9.80;;;10.70;38.00;;;;;;10450143;28;20291;-74
2023/12/28 16:24:45;;;;;;;13.33;10.53;;;10.70;38.00;;;;;;10450249;28;20626;-74
2023/12/28 16:29:48;;;;;;;11.40;10.23;;;10.70;38.20;;;;;;10449957;28;20229;-74
2023/12/28 16:34:51;;;;;;;12.90;11.60;;;10.70;38.10;;;;;;10449667;28;20312;-74
2023/12/28 16:39:57;;;;;;;16.03;14.10;;;10.70;38.30;;;;;;10449374;28;20278;-74
2023/12/28 16:45:00;;;;;;;14.40;12.90;;;10.70;38.40;;;;;;10449411;28;20233;-74
2023/12/28 16:50:04;;;;;;;14.00;12.53;;;10.70;38.20;;;;;;10449049;28;20319;-74
2023/12/28 16:55:09;;;;;;;13.77;12.37;;;10.70;38.40;;;;;;10448895;28;20788;-74
2023/12/28 17:00:15;;;;;;;12.60;11.30;;;10.70;38.60;;;;;;10448896;28;20269;-74
2023/12/28 17:05:21;;;;;;;13.03;11.53;;;10.60;38.70;;;;;;10448238;28;20241;-75
2023/12/28 17:10:27;;;;;;;15.97;14.07;;;10.60;38.50;;;;;;10448570;28;20239;-74
2023/12/28 17:15:33;;;;;;;18.20;15.57;;;10.60;38.50;;;;;;10448518;28;20232;-74
2023/12/28 17:20:37;;;;;;;19.67;16.23;;;10.60;38.60;;;;;;10447328;28;20283;-74
2023/12/28 17:25:51;;;;;;;22.10;19.20;;;10.60;38.50;;;;;;10447866;28;20679;-74
2023/12/28 17:30:56;;;;;;;27.70;24.70;;;10.60;39.10;;;;;;10447445;28;20328;-74
2023/12/28 17:35:59;;;;;;;23.53;18.43;;;10.60;38.80;;;;;;10447550;28;20229;-74
2023/12/28 17:41:06;;;;;;;24.30;21.77;;;10.50;38.70;;;;;;10447063;28;20263;-74
2023/12/28 17:46:20;;;;;;;18.77;16.47;;;10.40;39.10;;;;;;10447258;28;20316;-74
2023/12/28 17:51:27;;;;;;;22.60;19.30;;;10.40;39.40;;;;;;10447020;28;20768;-74
2023/12/28 17:56:32;;;;;;;18.10;14.47;;;10.30;39.20;;;;;;10446813;28;20225;-74
2023/12/28 18:01:39;;;;;;;5.83;5.17;;;10.30;39.10;;;;;;10446893;28;20778;-74
2023/12/28 18:06:43;;;;;;;3.57;2.80;;;10.30;38.70;;;;;;10446477;28;20239;-74
2023/12/28 18:11:47;;;;;;;2.67;2.47;;;10.50;39.00;;;;;;10446642;28;20273;-74
2023/12/28 18:16:51;;;;;;;2.50;2.30;;;10.70;38.70;;;;;;10446606;28;20233;-74
2023/12/28 18:21:54;;;;;;;2.30;2.10;;;10.90;38.60;;;;;;10446624;28;20296;-74
2023/12/28 18:26:59;;;;;;;107.13;73.90;;;11.10;38.20;;;;;;10446219;28;20287;-74
2023/12/28 18:32:02;;;;;;;54.47;35.03;;;11.40;38.00;;;;;;10448315;28;20705;-74
2023/12/28 18:37:05;;;;;;;206.07;131.20;;;11.40;38.10;;;;;;10454442;28;20718;-74
2023/12/28 18:42:10;;;;;;;146.33;104.00;;;11.60;37.90;;;;;;10454648;28;20236;-74
2023/12/28 18:47:14;;;;;;;54.03;40.07;;;11.60;37.50;;;;;;10454075;28;20241;-74
2023/12/28 18:52:17;;;;;;;21.83;17.17;;;11.60;37.40;;;;;;10454127;28;20237;-74
2023/12/28 18:57:23;;;;;;;19.80;17.70;;;11.60;37.20;;;;;;10453765;28;20745;-74
2023/12/28 19:02:27;;;;;;;11.63;10.40;;;11.50;37.00;;;;;;10454136;28;20229;-75
2023/12/28 19:07:30;;;;;;;8.57;7.67;;;11.50;37.30;;;;;;10454075;28;20233;-75
2023/12/28 19:12:35;;;;;;;6.40;5.80;;;11.40;37.30;;;;;;10453906;28;20239;-75
2023/12/28 19:17:41;;;;;;;5.73;4.73;;;11.40;37.40;;;;;;10453703;28;20260;-75
2023/12/28 19:22:44;;;;;;;5.87;5.07;;;11.40;37.30;;;;;;10453454;28;20611;-75
2023/12/28 19:27:49;;;;;;;5.47;4.70;;;11.40;37.30;;;;;;10453108;28;20259;-75
2023/12/28 19:32:54;;;;;;;4.60;4.20;;;11.40;37.10;;;;;;10453261;28;20239;-75
2023/12/28 19:37:57;;;;;;;4.20;3.90;;;11.40;37.20;;;;;;10452620;28;20268;-75
2023/12/28 19:43:02;;;;;;;5.27;4.77;;;11.40;37.30;;;;;;10452466;28;20218;-75
2023/12/28 19:48:06;;;;;;;4.53;4.13;;;11.40;37.20;;;;;;10452048;28;20258;-75
2023/12/28 19:53:13;;;;;;;3.80;3.50;;;11.30;37.10;;;;;;10452679;28;20279;-75
2023/12/28 19:58:18;;;;;;;4.93;4.53;;;11.20;37.00;;;;;;10451975;28;20233;-75
2023/12/28 20:03:21;;;;;;;5.70;4.83;;;11.20;37.10;;;;;;10451853;28;20253;-74
2023/12/28 20:08:25;;;;;;;5.53;4.90;;;11.10;37.10;;;;;;10451832;28;20274;-75
2023/12/28 20:13:29;;;;;;;5.60;5.03;;;11.00;37.20;;;;;;10451557;28;20233;-75
2023/12/28 20:18:33;;;;;;;36.50;21.10;;;11.00;37.30;;;;;;10451360;28;20556;-74
2023/12/28 20:23:36;;;;;;;12.07;8.17;;;10.90;37.40;;;;;;10451182;28;20239;-74
2023/12/28 20:28:41;;;;;;;5.20;4.10;;;10.80;37.30;;;;;;10450796;28;20304;-74
2023/12/28 20:33:44;;;;;;;2.93;2.63;;;10.70;37.50;;;;;;10450583;28;20730;-74
2023/12/28 20:38:47;;;;;;;2.60;2.27;;;10.80;37.90;;;;;;10450616;28;20714;-74
2023/12/28 20:43:52;;;;;;;3.13;2.50;;;11.00;38.00;;;;;;10450238;28;20594;-75
2023/12/28 20:48:55;;;;;;;2.43;2.23;;;11.20;37.90;;;;;;10450140;28;20240;-75
2023/12/28 20:53:59;;;;;;;2.90;2.30;;;11.40;38.00;;;;;;10449192;28;20745;-75
2023/12/28 20:59:03;;;;;;;2.40;2.20;;;11.50;38.00;;;;;;10449336;28;20232;-75
2023/12/28 21:04:06;;;;;;;2.30;2.10;;;11.70;37.80;;;;;;10449583;28;20319;-75
2023/12/28 21:09:15;;;;;;;2.47;2.27;;;11.80;37.70;;;;;;10449371;28;20235;-75
2023/12/28 21:14:20;;;;;;;2.33;2.13;;;11.90;37.70;;;;;;10449605;28;20282;-74
2023/12/28 21:19:23;;;;;;;2.80;2.50;;;12.00;37.50;;;;;;10449094;28;20320;-75
2023/12/28 21:24:27;;;;;;;2.77;2.30;;;12.10;37.50;;;;;;10449027;28;20233;-75
2023/12/28 21:29:31;;;;;;;2.37;2.17;;;12.20;37.40;;;;;;10448519;28;20723;-75
2023/12/28 21:34:37;;;;;;;2.73;2.50;;;12.20;37.30;;;;;;10448632;28;20225;-75
2023/12/28 21:39:41;;;;;;;2.53;2.33;;;12.20;37.30;;;;;;10448127;28;20303;-75
2023/12/28 21:44:46;;;;;;;2.50;2.27;;;12.30;37.40;;;;;;10448033;28;20229;-75
2023/12/28 21:49:49;;;;;;;2.60;2.40;;;12.30;37.40;;;;;;10447961;28;20240;-75
2023/12/28 21:54:52;;;;;;;3.73;2.40;;;12.30;37.60;;;;;;10448076;28;20232;-75
2023/12/28 21:59:57;;;;;;;2.60;2.40;;;12.20;37.50;;;;;;10447394;28;20286;-75
2023/12/28 22:05:00;;;;;;;2.33;2.13;;;12.30;37.60;;;;;;10447350;28;20229;-75
2023/12/28 22:10:04;;;;;;;2.33;2.10;;;12.20;37.50;;;;;;10447742;28;20598;-75
2023/12/28 22:15:10;;;;;;;2.30;2.10;;;12.20;37.70;;;;;;10447392;28;20232;-75
2023/12/28 22:20:14;;;;;;;2.03;1.90;;;12.20;37.80;;;;;;10447358;28;20287;-75
2023/12/28 22:25:17;;;;;;;1.90;1.80;;;12.20;37.80;;;;;;10446700;28;20311;-74
2023/12/28 22:30:21;;;;;;;2.30;2.10;;;12.20;37.90;;;;;;10446689;28;20291;-75
2023/12/28 22:35:25;;;;;;;2.10;1.90;;;12.20;37.90;;;;;;10447434;28;20240;-75
2023/12/28 22:40:28;;;;;;;2.37;2.10;;;12.20;37.90;;;;;;10447131;28;20225;-75
2023/12/28 22:45:32;;;;;;;2.57;1.93;;;12.20;37.80;;;;;;10446886;28;20323;-75
2023/12/28 22:50:36;;;;;;;1.83;1.73;;;12.30;38.00;;;;;;10446736;28;20320;-75
2023/12/28 22:55:39;;;;;;;2.00;1.80;;;12.20;38.00;;;;;;10446665;28;20233;-75
2023/12/28 23:00:44;;;;;;;2.30;1.80;;;12.20;38.20;;;;;;10445671;28;20272;-75
2023/12/28 23:05:47;;;;;;;2.20;2.00;;;12.20;38.10;;;;;;10446735;28;20239;-75
2023/12/28 23:10:51;;;;;;;1.97;1.87;;;12.10;38.20;;;;;;10446337;28;20234;-75
2023/12/28 23:15:56;;;;;;;1.90;1.70;;;12.10;38.40;;;;;;10446235;28;20247;-75
2023/12/28 23:21:00;;;;;;;1.80;1.70;;;12.00;38.40;;;;;;10452049;28;20229;-74
2023/12/28 23:26:03;;;;;;;1.60;1.50;;;12.00;38.60;;;;;;10453204;28;21003;-75
2023/12/28 23:31:08;;;;;;;1.73;1.63;;;12.00;38.70;;;;;;10452967;28;20375;-75
2023/12/28 23:36:12;;;;;;;1.80;1.70;;;11.90;38.70;;;;;;10453076;28;20248;-75
2023/12/28 23:41:15;;;;;;;1.80;1.70;;;11.90;38.80;;;;;;10452960;28;20251;-75
2023/12/28 23:46:20;;;;;;;1.77;1.67;;;11.90;38.90;;;;;;10452933;28;20316;-75
2023/12/28 23:51:23;;;;;;;1.43;1.33;;;11.80;38.90;;;;;;10452588;28;20267;-74
2023/12/28 23:56:27;;;;;;;1.50;1.40;;;11.80;39.00;;;;;;10452514;28;20308;-75
